Time;durP1;ratioP1;P1;durP2;ratioP2;P2;SDS_P1;SDS_P2;PMS_P1;PMS_P2;Temp;Humidity;BMP_temperature;BMP_pressure;BME280_temperature;BME280_humidity;BME280_pressure;Samples;Min_cycle;Max_cycle;Signal;HPM_P1;HPM_P2
2021/12/02 00:00:24;;;;;;;8.60;1.88;;;;;;;4.25;100.00;100000.06;5221512;28;20013;-70
2021/12/02 00:02:55;;;;;;;5.22;1.70;;;;;;;4.18;100.00;99997.16;5222597;28;20036;-70
2021/12/02 00:05:25;;;;;;;7.22;2.17;;;;;;;4.08;100.00;99999.00;5220353;28;20023;-70
2021/12/02 00:07:56;;;;;;;5.97;1.70;;;;;;;3.98;100.00;100003.53;5221973;28;20445;-70
2021/12/02 00:10:30;;;;;;;6.70;2.30;;;;;;;3.90;100.00;99997.09;5222317;28;20401;-70
2021/12/02 00:13:02;;;;;;;6.83;2.33;;;;;;;3.87;100.00;100004.53;5225380;28;20036;-70
2021/12/02 00:15:50;;;;;;;8.40;1.92;;;;;;;3.86;100.00;100006.31;5221681;28;20649;-70
2021/12/02 00:21:07;;;;;;;4.68;1.98;;;;;;;3.76;100.00;99999.38;5220898;28;20448;-70
2021/12/02 00:23:50;;;;;;;4.03;2.30;;;;;;;3.71;100.00;100004.25;5221834;28;20516;-70
2021/12/02 00:26:22;;;;;;;5.68;2.20;;;;;;;3.70;100.00;99998.13;5220495;28;20081;-70
2021/12/02 00:28:55;;;;;;;9.90;2.38;;;;;;;3.67;100.00;100000.25;5222034;28;20025;-70
2021/12/02 00:31:29;;;;;;;5.63;2.65;;;;;;;3.64;100.00;100006.66;5221367;28;20383;-70
2021/12/02 00:34:03;;;;;;;6.30;3.07;;;;;;;3.60;100.00;100008.75;5208961;28;20106;-70
2021/12/02 00:36:36;;;;;;;5.37;2.60;;;;;;;3.65;100.00;100013.63;5221311;28;20069;-70
2021/12/02 00:39:11;;;;;;;7.05;3.17;;;;;;;3.66;100.00;100023.25;5221456;28;20029;-70
2021/12/02 00:41:42;;;;;;;9.73;2.80;;;;;;;3.76;100.00;100023.25;5221557;28;20032;-70
2021/12/02 00:44:14;;;;;;;6.63;2.78;;;;;;;3.79;100.00;100028.28;5220559;28;20108;-70
2021/12/02 00:46:45;;;;;;;9.48;2.95;;;;;;;3.86;100.00;100035.50;5221431;28;20024;-70
2021/12/02 00:49:18;;;;;;;9.48;2.88;;;;;;;3.87;100.00;100031.91;5221288;28;20040;-70
2021/12/02 00:51:58;;;;;;;8.27;3.65;;;;;;;3.99;100.00;100037.88;5220930;28;20116;-70
2021/12/02 00:54:30;;;;;;;10.80;4.00;;;;;;;4.02;100.00;100042.91;5220635;28;20059;-70
2021/12/02 00:57:03;;;;;;;14.63;3.85;;;;;;;4.00;100.00;100028.09;5221013;28;20037;-70
2021/12/02 00:59:34;;;;;;;11.57;3.42;;;;;;;4.00;100.00;100036.03;5221335;28;20108;-70
2021/12/02 01:02:07;;;;;;;6.40;3.28;;;;;;;4.06;100.00;100038.13;5220679;28;20373;-69
2021/12/02 01:04:38;;;;;;;11.13;2.75;;;;;;;4.06;100.00;100041.59;5220584;28;20029;-70
2021/12/02 01:07:08;;;;;;;6.35;2.90;;;;;;;4.05;100.00;100034.63;5220653;28;20497;-71
2021/12/02 01:09:39;;;;;;;5.38;2.40;;;;;;;4.04;100.00;100026.81;5222137;28;20017;-70
2021/12/02 01:12:10;;;;;;;7.57;2.10;;;;;;;4.10;100.00;100026.25;5232968;28;20033;-71
2021/12/02 01:14:43;;;;;;;7.07;1.70;;;;;;;4.08;100.00;100028.22;5218416;28;20740;-70
2021/12/02 01:17:13;;;;;;;6.45;2.17;;;;;;;3.97;100.00;100034.53;5221130;28;20501;-70
2021/12/02 01:19:44;;;;;;;6.28;1.80;;;;;;;3.99;100.00;100034.38;5220718;28;20031;-70
2021/12/02 01:22:16;;;;;;;7.80;1.70;;;;;;;4.02;100.00;100039.41;5221203;28;20069;-70
2021/12/02 01:24:50;;;;;;;9.93;1.73;;;;;;;4.04;100.00;100037.44;5220705;28;20474;-70
2021/12/02 01:27:21;;;;;;;3.65;1.27;;;;;;;3.93;100.00;100040.25;5220732;28;20097;-70
2021/12/02 01:29:52;;;;;;;11.07;1.83;;;;;;;3.82;100.00;100038.63;5220364;28;20029;-70
2021/12/02 01:32:24;;;;;;;8.02;1.73;;;;;;;3.77;100.00;100038.22;5220861;28;20029;-70
2021/12/02 01:34:57;;;;;;;9.55;1.85;;;;;;;3.69;100.00;100038.06;5220471;28;20056;-70
2021/12/02 01:37:28;;;;;;;6.65;1.23;;;;;;;3.55;100.00;100044.63;5221108;28;20527;-70
2021/12/02 01:40:00;;;;;;;12.88;1.90;;;;;;;3.44;100.00;100044.78;5225621;28;20111;-70
2021/12/02 01:42:32;;;;;;;9.90;1.63;;;;;;;3.33;100.00;100038.66;5224342;28;20025;-70
2021/12/02 01:45:03;;;;;;;6.93;1.55;;;;;;;3.27;100.00;100048.97;5224776;28;20461;-70
2021/12/02 01:47:43;;;;;;;9.23;1.40;;;;;;;3.25;100.00;100041.16;5225071;28;20025;-70
2021/12/02 01:50:16;;;;;;;7.20;1.60;;;;;;;3.26;100.00;100053.44;5224385;28;20029;-70
2021/12/02 01:52:49;;;;;;;10.95;1.77;;;;;;;3.26;100.00;100040.19;5224566;28;20382;-70
2021/12/02 01:55:21;;;;;;;7.93;1.75;;;;;;;3.32;100.00;100038.78;5224151;28;20115;-70
2021/12/02 01:57:59;;;;;;;5.72;1.90;;;;;;;3.35;100.00;100049.94;5224841;28;20389;-70
2021/12/02 02:00:33;;;;;;;9.60;2.03;;;;;;;3.41;100.00;100050.34;5224739;28;20501;-70
2021/12/02 02:03:03;;;;;;;7.38;1.60;;;;;;;3.43;100.00;100059.03;5225042;28;20031;-70
2021/12/02 02:05:34;;;;;;;10.27;2.13;;;;;;;3.42;100.00;100057.34;5224542;28;20021;-70
2021/12/02 02:08:18;;;;;;;4.68;1.60;;;;;;;3.44;100.00;100052.75;5224838;28;20070;-70
2021/12/02 02:10:49;;;;;;;8.63;3.42;;;;;;;3.52;100.00;100063.50;5224964;28;20132;-69
2021/12/02 02:13:29;;;;;;;6.95;1.70;;;;;;;3.56;100.00;100067.53;5223981;28;20021;-68
2021/12/02 02:15:59;;;;;;;12.85;1.77;;;;;;;3.68;100.00;100074.38;5224107;28;20044;-68
2021/12/02 02:18:46;;;;;;;11.25;1.98;;;;;;;3.78;100.00;100083.16;5225231;28;20025;-67
2021/12/02 02:21:22;;;;;;;10.00;1.88;;;;;;;3.82;100.00;100087.22;5224604;28;20079;-68
2021/12/02 02:23:58;;;;;;;6.00;1.73;;;;;;;3.89;100.00;100075.03;5224728;28;20111;-71
2021/12/02 02:26:35;;;;;;;8.40;2.95;;;;;;;3.87;100.00;100071.69;5224131;28;20059;-70
2021/12/02 02:29:08;;;;;;;6.25;2.10;;;;;;;3.84;100.00;100079.94;5224898;28;20036;-71
2021/12/02 02:31:41;;;;;;;13.63;2.67;;;;;;;3.76;100.00;100071.84;5224467;28;20025;-71
2021/12/02 02:34:13;;;;;;;6.00;1.80;;;;;;;3.76;100.00;100066.53;5223724;28;20376;-71
2021/12/02 02:36:52;;;;;;;8.55;2.45;;;;;;;3.74;100.00;100068.50;5224098;28;20025;-70
2021/12/02 02:39:24;;;;;;;10.52;1.90;;;;;;;3.69;100.00;100062.78;5224448;28;20048;-71
2021/12/02 02:41:59;;;;;;;6.25;1.85;;;;;;;3.62;100.00;100069.63;5224140;28;20031;-71
2021/12/02 02:44:32;;;;;;;8.75;1.70;;;;;;;3.53;100.00;100071.31;5224311;28;20036;-70
2021/12/02 02:47:03;;;;;;;9.02;1.88;;;;;;;3.46;100.00;100050.78;5223782;28;20029;-71
2021/12/02 02:49:34;;;;;;;7.88;1.70;;;;;;;3.34;100.00;100066.00;5223458;28;20104;-70
2021/12/02 02:52:04;;;;;;;5.10;1.90;;;;;;;3.26;100.00;100064.06;5223944;28;20595;-70
2021/12/02 02:54:35;;;;;;;8.70;1.35;;;;;;;3.20;100.00;100061.94;5223790;28;20041;-70
2021/12/02 02:57:09;;;;;;;12.30;2.08;;;;;;;3.15;100.00;100063.31;5222740;28;20021;-70
2021/12/02 03:07:40;;;;;;;8.63;1.58;;;;;;;2.92;100.00;100073.34;5223777;28;20497;-70
2021/12/02 03:10:16;;;;;;;9.68;2.05;;;;;;;2.94;100.00;100066.91;5229252;28;20032;-70
2021/12/02 03:12:56;;;;;;;9.43;1.45;;;;;;;2.91;100.00;100074.28;5229508;28;20017;-70
2021/12/02 03:18:21;;;;;;;5.13;1.23;;;;;;;2.95;100.00;100078.34;5223169;28;20054;-70
2021/12/02 03:20:51;;;;;;;5.60;1.23;;;;;;;2.96;100.00;100083.53;5222315;28;20031;-70
2021/12/02 03:23:23;;;;;;;5.88;1.33;;;;;;;3.06;100.00;100084.38;5222842;28;20021;-70
2021/12/02 03:25:54;;;;;;;9.57;1.50;;;;;;;3.17;100.00;100085.25;5223387;28;20031;-70
2021/12/02 03:28:24;;;;;;;7.60;1.23;;;;;;;3.21;100.00;100086.63;5223631;28;20037;-70
2021/12/02 03:30:55;;;;;;;13.40;1.27;;;;;;;3.28;100.00;100088.59;5223421;28;20092;-70
2021/12/02 03:33:25;;;;;;;10.10;1.95;;;;;;;3.40;100.00;100101.72;5223536;28;20017;-70
2021/12/02 03:35:55;;;;;;;13.73;2.42;;;;;;;3.41;100.00;100090.13;5223039;28;20056;-70
2021/12/02 03:38:26;;;;;;;8.05;2.10;;;;;;;3.42;100.00;100092.66;5223396;28;20037;-67
2021/12/02 03:40:57;;;;;;;14.13;1.48;;;;;;;3.44;100.00;100093.34;5223044;28;20025;-67
2021/12/02 03:43:40;;;;;;;6.90;1.33;;;;;;;3.42;100.00;100082.06;5222845;28;20518;-68
2021/12/02 03:46:12;;;;;;;6.85;1.38;;;;;;;3.37;100.00;100090.44;5210374;28;20090;-67
2021/12/02 03:48:43;;;;;;;7.82;1.27;;;;;;;3.35;100.00;100079.09;5222988;28;20104;-67
2021/12/02 03:51:14;;;;;;;6.80;0.80;;;;;;;3.26;100.00;100069.34;5222884;28;20021;-68
2021/12/02 03:53:46;;;;;;;4.57;0.88;;;;;;;3.17;100.00;100072.00;5222428;28;20036;-68
2021/12/02 03:56:16;;;;;;;1.95;0.28;;;;;;;3.12;100.00;100075.06;5221280;28;20100;-68
2021/12/02 03:58:48;;;;;;;7.07;0.65;;;;;;;3.02;100.00;100077.69;5213366;28;20118;-67
2021/12/02 04:01:21;;;;;;;4.47;0.40;;;;;;;2.96;100.00;100082.66;5201755;28;20022;-68
2021/12/02 04:03:52;;;;;;;3.92;2.40;;;;;;;2.89;100.00;100081.53;5221491;28;20102;-67
2021/12/02 04:06:23;;;;;;;6.75;4.70;;;;;;;2.78;100.00;100087.78;5218667;28;20025;-68
2021/12/02 04:14:09;;;;;;;27.75;11.98;;;;;;;2.49;100.00;100096.47;5222222;28;20074;-68
2021/12/02 04:16:41;;;;;;;7.55;0.82;;;;;;;2.50;100.00;100100.78;5222249;28;20083;-70
2021/12/02 04:19:11;;;;;;;9.63;1.65;;;;;;;2.62;100.00;100103.34;5222337;28;20021;-70
2021/12/02 04:21:42;;;;;;;15.80;3.67;;;;;;;2.65;100.00;100100.41;5222642;28;20025;-70
2021/12/02 04:24:12;;;;;;;4.65;1.73;;;;;;;2.68;100.00;100108.13;5221982;28;20063;-70
2021/12/02 04:26:43;;;;;;;10.95;1.75;;;;;;;2.77;100.00;100120.56;5222221;28;20542;-71
2021/12/02 04:29:14;;;;;;;20.15;13.82;;;;;;;2.77;100.00;100117.91;5221817;28;20040;-71
2021/12/02 04:31:46;;;;;;;8.02;5.55;;;;;;;2.69;100.00;100118.56;5221996;28;20104;-71
2021/12/02 04:34:17;;;;;;;4.00;0.70;;;;;;;2.65;100.00;100111.84;5221510;28;20036;-71
2021/12/02 04:36:48;;;;;;;4.28;0.73;;;;;;;2.60;100.00;100117.53;5222424;28;20025;-70
2021/12/02 04:39:18;;;;;;;1.10;0.95;;;;;;;2.54;100.00;100104.00;5221899;28;20036;-71
2021/12/02 04:41:49;;;;;;;8.00;1.30;;;;;;;2.49;100.00;100115.00;5221496;28;20028;-70
2021/12/02 04:44:19;;;;;;;2.53;0.60;;;;;;;2.55;100.00;100125.03;5221711;28;20116;-70
2021/12/02 04:46:51;;;;;;;4.25;0.32;;;;;;;2.59;100.00;100128.28;5221731;28;20028;-69
2021/12/02 04:49:22;;;;;;;9.93;4.82;;;;;;;2.55;100.00;100135.63;5221931;28;20401;-71
2021/12/02 04:51:52;;;;;;;11.40;8.23;;;;;;;2.49;100.00;100143.28;5222048;28;20024;-70
2021/12/02 04:54:23;;;;;;;4.53;1.17;;;;;;;2.52;100.00;100132.44;5221002;28;20047;-71
2021/12/02 04:56:53;;;;;;;10.90;4.57;;;;;;;2.49;100.00;100124.75;5221741;28;20025;-71
2021/12/02 04:59:24;;;;;;;5.72;0.90;;;;;;;2.49;100.00;100117.63;5221735;28;20048;-71
2021/12/02 05:01:54;;;;;;;7.93;4.07;;;;;;;2.38;100.00;100101.84;5221645;28;20074;-71
2021/12/02 05:04:25;;;;;;;98.93;36.33;;;;;;;2.32;100.00;100105.88;5221097;28;20330;-70
2021/12/02 05:06:55;;;;;;;115.72;42.90;;;;;;;2.25;100.00;100093.28;5221243;28;20556;-71
2021/12/02 05:09:26;;;;;;;45.75;21.65;;;;;;;2.19;100.00;100105.22;5221725;28;20033;-70
2021/12/02 05:11:56;;;;;;;183.40;53.78;;;;;;;2.18;100.00;100114.13;5221303;28;20048;-70
2021/12/02 05:14:27;;;;;;;198.65;61.50;;;;;;;2.14;100.00;100119.81;5218142;28;20025;-70
2021/12/02 05:16:57;;;;;;;72.60;25.52;;;;;;;2.14;100.00;100112.72;5221797;28;20029;-70
2021/12/02 05:19:28;;;;;;;39.60;19.38;;;;;;;2.17;100.00;100128.34;5221363;28;20113;-70
2021/12/02 05:21:58;;;;;;;19.42;8.45;;;;;;;2.23;100.00;100133.09;5221375;28;20028;-71
2021/12/02 05:24:29;;;;;;;11.93;3.10;;;;;;;2.31;100.00;100135.97;5220799;28;20028;-70
2021/12/02 05:26:59;;;;;;;9.80;2.55;;;;;;;2.37;100.00;100139.06;5221397;28;20029;-71
2021/12/02 05:29:31;;;;;;;13.15;4.38;;;;;;;2.31;100.00;100128.00;5220792;28;20024;-71
2021/12/02 05:32:01;;;;;;;14.02;4.63;;;;;;;2.31;100.00;100125.38;5221033;28;20035;-71
2021/12/02 05:34:32;;;;;;;12.98;4.20;;;;;;;2.32;100.00;100132.34;5220726;28;20416;-71
2021/12/02 05:37:04;;;;;;;7.45;2.78;;;;;;;2.43;100.00;100134.06;5221104;28;20024;-70
2021/12/02 05:39:34;;;;;;;10.65;2.72;;;;;;;2.39;100.00;100124.69;5221240;28;20036;-70
2021/12/02 05:42:05;;;;;;;14.07;2.30;;;;;;;2.34;100.00;100118.97;5221031;28;20021;-70
2021/12/02 05:44:35;;;;;;;8.82;2.10;;;;;;;2.45;100.00;100125.97;5220737;28;20577;-70
2021/12/02 05:47:06;;;;;;;7.63;2.13;;;;;;;2.44;100.00;100125.13;5221094;28;20028;-70
2021/12/02 05:49:37;;;;;;;10.38;2.40;;;;;;;2.43;100.00;100122.63;5221040;28;20063;-70
2021/12/02 05:52:08;;;;;;;11.15;2.47;;;;;;;2.54;100.00;100141.06;5220634;28;20021;-70
2021/12/02 05:54:38;;;;;;;11.73;2.90;;;;;;;2.62;100.00;100141.28;5220302;28;20039;-70
2021/12/02 05:57:09;;;;;;;13.80;3.20;;;;;;;2.58;100.00;100147.78;5220968;28;20039;-68
2021/12/02 05:59:40;;;;;;;13.73;7.60;;;;;;;2.56;100.00;100150.59;5220972;28;20033;-67
2021/12/02 06:02:10;;;;;;;8.13;2.40;;;;;;;2.58;100.00;100151.28;5220698;28;20031;-69
2021/12/02 06:04:42;;;;;;;3.78;1.40;;;;;;;2.51;100.00;100162.50;5220399;28;20103;-68
2021/12/02 06:07:13;;;;;;;2.10;0.88;;;;;;;2.33;100.00;100160.47;5220194;28;20037;-69
2021/12/02 06:09:44;;;;;;;3.72;1.27;;;;;;;2.06;100.00;100149.59;5236738;28;20116;-70
2021/12/02 06:12:14;;;;;;;6.70;1.40;;;;;;;1.94;100.00;100132.06;5210533;28;20423;-69
2021/12/02 06:14:45;;;;;;;6.00;1.48;;;;;;;1.84;100.00;100142.59;5219510;28;20029;-69
2021/12/02 06:17:15;;;;;;;2.78;1.17;;;;;;;1.78;100.00;100151.88;5221021;28;20198;-69
2021/12/02 06:19:46;;;;;;;3.05;0.93;;;;;;;1.75;100.00;100148.63;5220660;28;20059;-69
2021/12/02 06:22:16;;;;;;;5.40;1.05;;;;;;;1.74;100.00;100155.72;5220443;28;20035;-69
2021/12/02 06:25:04;;;;;;;5.28;0.95;;;;;;;1.81;100.00;100162.19;5222874;28;20060;-69
2021/12/02 06:27:35;;;;;;;3.85;1.27;;;;;;;1.79;100.00;100152.69;5223888;28;20389;-71
2021/12/02 06:30:06;;;;;;;10.23;1.20;;;;;;;1.81;100.00;100137.56;5223866;28;20067;-68
2021/12/02 06:32:37;;;;;;;11.40;1.83;;;;;;;1.81;100.00;100133.13;5223959;28;20033;-69
2021/12/02 06:35:09;;;;;;;11.65;4.32;;;;;;;1.81;100.00;100141.03;5223978;28;20024;-68
2021/12/02 06:37:41;;;;;;;24.17;10.27;;;;;;;1.75;100.00;100149.47;5224049;28;20033;-69
2021/12/02 06:40:12;;;;;;;3.90;1.77;;;;;;;1.72;100.00;100156.84;5224324;28;20013;-69
2021/12/02 06:42:43;;;;;;;16.15;6.97;;;;;;;1.75;100.00;100156.56;5223079;28;20036;-68
2021/12/02 06:45:14;;;;;;;11.98;3.60;;;;;;;1.68;100.00;100160.69;5223780;28;20027;-68
2021/12/02 06:47:45;;;;;;;6.38;2.08;;;;;;;1.70;100.00;100162.22;5224246;28;20366;-68
2021/12/02 06:50:19;;;;;;;5.38;1.40;;;;;;;1.72;100.00;100160.31;5223749;28;20437;-68
2021/12/02 06:52:51;;;;;;;8.32;1.23;;;;;;;1.72;100.00;100159.47;5223783;28;20025;-68
2021/12/02 06:55:22;;;;;;;7.00;0.80;;;;;;;1.80;100.00;100179.00;5223462;28;20029;-68
2021/12/02 06:57:53;;;;;;;5.07;1.02;;;;;;;1.90;100.00;100189.69;5223899;28;20021;-68
2021/12/02 07:00:24;;;;;;;21.33;2.70;;;;;;;1.89;100.00;100181.88;5222710;28;20385;-69
2021/12/02 07:02:55;;;;;;;4.55;1.20;;;;;;;1.89;100.00;100177.44;5223856;28;20017;-68
2021/12/02 07:05:25;;;;;;;10.45;1.70;;;;;;;1.79;100.00;100172.06;5222821;28;20021;-68
2021/12/02 07:07:56;;;;;;;9.45;1.60;;;;;;;1.72;100.00;100186.75;5223544;28;20028;-68
2021/12/02 07:10:28;;;;;;;23.67;3.53;;;;;;;1.67;100.00;100186.28;5222289;28;20083;-68
2021/12/02 07:13:00;;;;;;;51.85;24.63;;;;;;;1.66;100.00;100183.78;5222453;28;20021;-67
2021/12/02 07:15:32;;;;;;;16.10;5.70;;;;;;;1.63;100.00;100186.66;5223251;28;20052;-68
2021/12/02 07:18:12;;;;;;;44.63;16.63;;;;;;;1.62;100.00;100190.28;5222968;28;20039;-67
2021/12/02 07:20:47;;;;;;;35.58;19.77;;;;;;;1.65;100.00;100206.72;5223542;28;20072;-67
2021/12/02 07:23:20;;;;;;;25.23;10.68;;;;;;;1.68;100.00;100203.00;5223461;28;20071;-70
2021/12/02 07:25:51;;;;;;;15.45;4.22;;;;;;;1.84;100.00;100215.81;5222833;28;20027;-70
2021/12/02 07:28:21;;;;;;;10.13;2.65;;;;;;;1.87;100.00;100229.63;5223780;28;20267;-71
2021/12/02 07:30:54;;;;;;;5.15;2.20;;;;;;;1.91;100.00;100236.34;5222780;28;20378;-71
2021/12/02 07:33:28;;;;;;;7.15;1.95;;;;;;;1.68;100.00;100248.78;5223120;28;20031;-70
2021/12/02 07:35:59;;;;;;;8.35;2.00;;;;;;;1.50;100.00;100240.53;5221910;28;20028;-69
2021/12/02 07:38:30;;;;;;;8.55;2.08;;;;;;;1.42;100.00;100239.47;5222947;28;20032;-70
2021/12/02 07:41:04;;;;;;;9.77;3.53;;;;;;;1.35;100.00;100244.38;5210606;28;20025;-71
2021/12/02 07:43:37;;;;;;;3.38;1.67;;;;;;;1.34;100.00;100253.28;5222870;28;20020;-70
2021/12/02 07:46:09;;;;;;;5.35;1.50;;;;;;;1.33;100.00;100254.25;5222489;28;20485;-70
2021/12/02 07:48:40;;;;;;;5.97;0.90;;;;;;;1.34;100.00;100263.03;5223217;28;20067;-70
2021/12/02 07:51:13;;;;;;;2.45;1.08;;;;;;;1.34;100.00;100265.66;5222273;28;20060;-72
2021/12/02 07:53:46;;;;;;;4.78;0.82;;;;;;;1.31;100.00;100258.00;5222470;28;20508;-72
2021/12/02 07:56:20;;;;;;;13.95;6.25;;;;;;;1.25;100.00;100262.78;5222625;28;20079;-72
2021/12/02 07:58:51;;;;;;;4.85;2.13;;;;;;;1.23;100.00;100271.78;5222406;28;20468;-70
2021/12/02 08:01:21;;;;;;;4.45;1.20;;;;;;;1.13;100.00;100252.34;5222566;28;20107;-70
2021/12/02 08:03:52;;;;;;;5.45;1.70;;;;;;;1.09;100.00;100274.66;5222059;28;20034;-70
2021/12/02 08:06:24;;;;;;;6.78;2.97;;;;;;;1.05;100.00;100260.84;5222240;28;20036;-70
2021/12/02 08:08:54;;;;;;;9.38;4.60;;;;;;;1.00;100.00;100258.59;5221668;28;20032;-70
2021/12/02 08:11:25;;;;;;;10.25;5.85;;;;;;;0.95;100.00;100257.25;5215226;28;20032;-71
2021/12/02 08:13:56;;;;;;;8.15;3.15;;;;;;;0.95;100.00;100268.66;5213360;28;20102;-71
2021/12/02 08:16:27;;;;;;;18.75;8.52;;;;;;;0.90;100.00;100270.81;5221712;28;20075;-71
2021/12/02 08:19:00;;;;;;;19.55;10.15;;;;;;;0.91;100.00;100277.78;5221314;28;20032;-70
2021/12/02 08:21:31;;;;;;;10.60;3.95;;;;;;;0.88;100.00;100287.75;5222408;28;20021;-69
2021/12/02 08:24:01;;;;;;;13.57;3.92;;;;;;;0.83;100.00;100292.53;5222206;28;20024;-70
2021/12/02 08:26:33;;;;;;;10.88;3.90;;;;;;;0.85;100.00;100296.72;5221530;28;20032;-71
2021/12/02 08:29:05;;;;;;;5.20;1.42;;;;;;;0.87;100.00;100299.28;5222258;28;20070;-71
2021/12/02 08:31:35;;;;;;;8.15;1.42;;;;;;;0.88;100.00;100298.31;5222327;28;20037;-71
2021/12/02 08:34:06;;;;;;;8.55;1.80;;;;;;;0.93;100.00;100298.78;5221825;28;20116;-69
2021/12/02 08:36:43;;;;;;;5.35;1.80;;;;;;;0.94;100.00;100311.03;5222381;28;20442;-70
2021/12/02 08:39:24;;;;;;;5.07;1.90;;;;;;;0.98;100.00;100321.25;5221206;28;20035;-70
2021/12/02 08:41:56;;;;;;;7.00;2.50;;;;;;;0.93;100.00;100319.91;5222240;28;20105;-69
2021/12/02 08:44:27;;;;;;;10.77;2.75;;;;;;;1.02;100.00;100324.50;5221487;28;20115;-70
2021/12/02 08:46:58;;;;;;;5.25;2.60;;;;;;;1.11;100.00;100333.53;5221211;28;20048;-70
2021/12/02 08:49:29;;;;;;;7.18;2.60;;;;;;;1.01;100.00;100339.50;5221176;28;20400;-71
2021/12/02 08:51:59;;;;;;;4.05;2.20;;;;;;;0.92;100.00;100337.56;5221793;28;20393;-71
2021/12/02 08:54:30;;;;;;;9.50;3.58;;;;;;;0.80;100.00;100341.13;5221264;28;20031;-70
2021/12/02 08:57:00;;;;;;;206.98;90.25;;;;;;;0.71;100.00;100341.84;5220115;28;20037;-72
2021/12/02 08:59:30;;;;;;;260.55;84.25;;;;;;;0.61;100.00;100346.13;5221541;28;20095;-71
2021/12/02 09:02:01;;;;;;;466.80;153.90;;;;;;;0.51;100.00;100330.97;5221291;28;20025;-70
2021/12/02 09:04:31;;;;;;;619.67;196.68;;;;;;;0.45;100.00;100335.84;5221685;28;20021;-71
2021/12/02 09:07:02;;;;;;;203.07;57.35;;;;;;;0.47;100.00;100345.34;5221440;28;20060;-71
2021/12/02 09:09:33;;;;;;;9.57;5.07;;;;;;;0.51;100.00;100372.38;5221959;28;20025;-71
2021/12/02 09:12:04;;;;;;;10.95;3.33;;;;;;;0.53;100.00;100370.44;5234174;28;20126;-71
2021/12/02 09:14:36;;;;;;;4.88;3.05;;;;;;;0.39;100.00;100367.97;5217551;28;20017;-70
2021/12/02 09:17:07;;;;;;;6.68;3.17;;;;;;;0.22;100.00;100359.50;5221539;28;20485;-72
2021/12/02 09:19:37;;;;;;;11.27;4.85;;;;;;;0.16;100.00;100356.47;5221130;28;20021;-74
2021/12/02 09:22:08;;;;;;;10.68;4.03;;;;;;;0.14;100.00;100351.31;5221292;28;20029;-73
2021/12/02 09:24:39;;;;;;;8.23;3.90;;;;;;;0.24;100.00;100352.31;5220932;28;20397;-72
2021/12/02 09:27:10;;;;;;;16.67;7.32;;;;;;;0.37;100.00;100359.34;5220880;28;20024;-72
2021/12/02 09:29:41;;;;;;;14.20;6.25;;;;;;;0.52;100.00;100347.66;5219829;28;20029;-72
2021/12/02 09:32:11;;;;;;;10.30;5.25;;;;;;;0.68;100.00;100358.75;5221155;28;20025;-72
2021/12/02 09:34:42;;;;;;;8.18;4.32;;;;;;;0.75;100.00;100359.97;5220817;28;20029;-70
2021/12/02 09:37:13;;;;;;;11.73;4.25;;;;;;;0.80;100.00;100362.25;5221564;28;20052;-70
2021/12/02 09:39:44;;;;;;;11.43;4.78;;;;;;;0.93;100.00;100367.47;5220653;28;20039;-69
2021/12/02 09:42:15;;;;;;;12.38;5.13;;;;;;;0.94;100.00;100369.97;5220003;28;20018;-71
2021/12/02 09:44:47;;;;;;;17.02;6.45;;;;;;;1.02;100.00;100361.50;5220721;28;20041;-71
2021/12/02 09:47:19;;;;;;;12.70;4.85;;;;;;;1.14;100.00;100368.47;5221145;28;20028;-70
2021/12/02 09:49:50;;;;;;;7.75;3.13;;;;;;;1.27;100.00;100386.88;5221362;28;20036;-70
2021/12/02 09:52:29;;;;;;;10.18;2.50;;;;;;;1.41;100.00;100389.31;5215812;28;20025;-70
2021/12/02 09:55:11;;;;;;;9.13;4.10;;;;;;;1.54;100.00;100390.00;5214102;28;20141;-71
2021/12/02 09:57:45;;;;;;;5.15;1.40;;;;;;;1.67;100.00;100387.25;5221092;28;20441;-71
2021/12/02 10:00:26;;;;;;;6.60;1.80;;;;;;;1.71;100.00;100386.06;5223614;28;20032;-70
2021/12/02 10:03:02;;;;;;;16.80;6.32;;;;;;;1.66;100.00;100382.94;5225071;28;20036;-71
2021/12/02 10:05:39;;;;;;;2.30;1.58;;;;;;;1.64;100.00;100382.19;5224849;28;20025;-72
2021/12/02 10:08:20;;;;;;;13.82;4.75;;;;;;;1.61;100.00;100376.31;5224008;28;20032;-72
2021/12/02 10:11:01;;;;;;;8.65;4.18;;;;;;;1.65;100.00;100375.09;5236239;28;20423;-72
2021/12/02 10:13:43;;;;;;;10.15;3.05;;;;;;;1.58;100.00;100379.22;5222676;28;20023;-70
2021/12/02 10:16:29;;;;;;;4.72;2.00;;;;;;;1.59;100.00;100384.38;5224385;28;20104;-70
2021/12/02 10:19:05;;;;;;;7.15;3.72;;;;;;;1.61;100.00;100387.75;5224451;28;20029;-71
2021/12/02 10:21:42;;;;;;;9.73;4.28;;;;;;;1.70;100.00;100388.81;5224888;28;20043;-70
2021/12/02 10:24:17;;;;;;;14.60;5.38;;;;;;;1.80;100.00;100390.59;5224595;28;20477;-69
2021/12/02 10:26:51;;;;;;;14.23;6.32;;;;;;;1.92;100.00;100382.69;5224640;28;20033;-70
2021/12/02 10:29:27;;;;;;;8.32;4.00;;;;;;;1.92;100.00;100382.69;5224376;28;20024;-69
2021/12/02 10:32:09;;;;;;;12.50;4.63;;;;;;;2.00;100.00;100381.09;5224231;28;20043;-69
2021/12/02 10:35:01;;;;;;;4.90;1.00;;;;;;;2.04;100.00;100387.81;5223999;28;20024;-70
2021/12/02 10:37:34;;;;;;;2.05;1.08;;;;;;;2.02;100.00;100384.47;5224266;28;20025;-70
2021/12/02 10:40:10;;;;;;;2.67;1.33;;;;;;;1.99;100.00;100381.22;5223196;28;20035;-70
2021/12/02 10:42:43;;;;;;;11.52;4.68;;;;;;;1.90;100.00;100380.13;5222825;28;20105;-70
2021/12/02 10:45:23;;;;;;;4.95;2.22;;;;;;;1.88;100.00;100382.06;5223645;28;20052;-69
2021/12/02 10:47:55;;;;;;;7.88;3.65;;;;;;;1.81;100.00;100378.25;5224289;28;20548;-69
2021/12/02 10:50:34;;;;;;;8.48;4.05;;;;;;;1.72;100.00;100381.63;5220060;28;20044;-70
2021/12/02 10:53:05;;;;;;;7.63;3.40;;;;;;;1.65;100.00;100396.25;5215028;28;20025;-70
2021/12/02 10:55:36;;;;;;;3.45;1.52;;;;;;;1.57;100.00;100383.66;5222728;28;20043;-70
2021/12/02 10:58:06;;;;;;;3.25;1.90;;;;;;;1.49;100.00;100381.59;5211344;28;20488;-70
2021/12/02 11:00:45;;;;;;;12.52;8.02;;;;;;;1.34;100.00;100387.22;5223149;28;20017;-69
2021/12/02 11:03:16;;;;;;;7.70;4.60;;;;;;;1.28;100.00;100393.84;5223608;28;20051;-70
2021/12/02 11:05:47;;;;;;;9.23;3.95;;;;;;;1.20;100.00;100394.41;5210221;28;20021;-69
2021/12/02 11:08:18;;;;;;;9.05;5.32;;;;;;;1.19;100.00;100403.31;5223622;28;20021;-69
2021/12/02 11:10:50;;;;;;;8.15;4.68;;;;;;;1.11;100.00;100400.41;5222050;28;20504;-69
2021/12/02 11:13:24;;;;;;;6.15;2.75;;;;;;;1.07;100.00;100403.41;5216000;28;20017;-70
2021/12/02 11:15:55;;;;;;;15.25;8.32;;;;;;;0.97;100.00;100396.19;5222403;28;20025;-70
2021/12/02 11:18:28;;;;;;;7.10;4.05;;;;;;;0.95;100.00;100391.94;5223550;28;20556;-69
2021/12/02 11:20:59;;;;;;;6.43;2.17;;;;;;;1.14;100.00;100396.69;5223559;28;20028;-69
2021/12/02 11:23:45;;;;;;;7.47;2.60;;;;;;;1.24;100.00;100403.78;5223488;28;20375;-70
2021/12/02 11:26:17;;;;;;;7.82;3.67;;;;;;;1.48;100.00;100403.72;5223310;28;20159;-69
2021/12/02 11:28:48;;;;;;;10.30;4.95;;;;;;;1.66;100.00;100409.38;5223287;28;20025;-69
2021/12/02 11:31:20;;;;;;;31.73;15.48;;;;;;;1.80;100.00;100397.69;5222595;28;20025;-70
2021/12/02 11:33:52;;;;;;;9.95;4.57;;;;;;;1.94;100.00;100400.09;5223381;28;20024;-70
2021/12/02 11:36:26;;;;;;;9.75;4.53;;;;;;;1.92;100.00;100399.41;5222407;28;20029;-69
2021/12/02 11:39:00;;;;;;;14.07;4.93;;;;;;;2.00;100.00;100404.91;5223128;28;20035;-70
2021/12/02 11:41:31;;;;;;;15.48;6.10;;;;;;;2.14;100.00;100411.75;5222310;28;20028;-69
2021/12/02 11:44:02;;;;;;;43.45;18.83;;;;;;;2.24;100.00;100412.69;5223013;28;20489;-70
2021/12/02 11:46:34;;;;;;;12.40;4.00;;;;;;;2.28;100.00;100410.66;5222464;28;20389;-69
2021/12/02 11:49:04;;;;;;;8.38;4.88;;;;;;;2.37;100.00;100409.91;5223169;28;20108;-70
2021/12/02 11:51:36;;;;;;;7.57;4.03;;;;;;;2.51;100.00;100414.06;5222435;28;20124;-69
2021/12/02 11:54:07;;;;;;;22.77;11.43;;;;;;;2.68;100.00;100426.78;5222242;28;20056;-69
2021/12/02 11:56:37;;;;;;;30.38;15.77;;;;;;;2.69;100.00;100417.84;5222947;28;20061;-70
2021/12/02 11:59:09;;;;;;;13.98;7.75;;;;;;;2.79;100.00;100416.13;5217245;28;20030;-70
2021/12/02 12:01:42;;;;;;;10.02;6.00;;;;;;;2.66;100.00;100410.19;5203617;28;20423;-70
2021/12/02 12:04:14;;;;;;;31.13;16.55;;;;;;;2.70;100.00;100416.88;5216912;28;20027;-70